sensor_id;sensor_type;location;lat;lon;timestamp;pressure;altitude;pressure_sealevel;temperature;humidity
24336;BME280;33098;52.400;16.880;2023-11-22T00:01:03;101572.04;;;1.96;86.34
24336;BME280;33098;52.400;16.880;2023-11-22T00:03:34;101568.39;;;1.95;86.42
24336;BME280;33098;52.400;16.880;2023-11-22T00:06:00;101581.23;;;1.92;86.26
24336;BME280;33098;52.400;16.880;2023-11-22T00:08:27;101584.25;;;1.90;86.32
24336;BME280;33098;52.400;16.880;2023-11-22T00:10:55;101586.58;;;1.88;85.98
24336;BME280;33098;52.400;16.880;2023-11-22T00:13:21;101591.89;;;1.86;86.00
24336;BME280;33098;52.400;16.880;2023-11-22T00:15:48;101591.46;;;1.82;86.09
24336;BME280;33098;52.400;16.880;2023-11-22T00:18:16;101590.08;;;1.80;86.28
24336;BME280;33098;52.400;16.880;2023-11-22T00:20:43;101593.24;;;1.80;86.33
24336;BME280;33098;52.400;16.880;2023-11-22T00:23:09;101601.01;;;1.78;86.32
24336;BME280;33098;52.400;16.880;2023-11-22T00:25:36;101604.92;;;1.74;86.23
24336;BME280;33098;52.400;16.880;2023-11-22T00:28:02;101601.58;;;1.75;86.28
24336;BME280;33098;52.400;16.880;2023-11-22T00:30:32;101602.82;;;1.75;86.36
24336;BME280;33098;52.400;16.880;2023-11-22T00:32:58;101606.55;;;1.72;86.14
24336;BME280;33098;52.400;16.880;2023-11-22T00:35:25;101605.83;;;1.66;86.17
24336;BME280;33098;52.400;16.880;2023-11-22T00:37:51;101607.67;;;1.61;85.99
24336;BME280;33098;52.400;16.880;2023-11-22T00:40:19;101604.21;;;1.60;86.06
24336;BME280;33098;52.400;16.880;2023-11-22T00:42:46;101611.57;;;1.60;86.10
24336;BME280;33098;52.400;16.880;2023-11-22T00:45:13;101618.79;;;1.57;86.12
24336;BME280;33098;52.400;16.880;2023-11-22T00:47:40;101622.45;;;1.50;85.99
24336;BME280;33098;52.400;16.880;2023-11-22T00:50:07;101631.02;;;1.51;85.86
24336;BME280;33098;52.400;16.880;2023-11-22T00:52:34;101634.19;;;1.50;85.86
24336;BME280;33098;52.400;16.880;2023-11-22T00:55:00;101635.77;;;1.50;85.93
24336;BME280;33098;52.400;16.880;2023-11-22T00:57:27;101636.66;;;1.49;85.97
24336;BME280;33098;52.400;16.880;2023-11-22T00:59:53;101640.31;;;1.50;85.91
24336;BME280;33098;52.400;16.880;2023-11-22T01:02:20;101645.58;;;1.49;85.79
24336;BME280;33098;52.400;16.880;2023-11-22T01:04:46;101643.17;;;1.46;85.75
24336;BME280;33098;52.400;16.880;2023-11-22T01:07:13;101647.29;;;1.42;85.65
24336;BME280;33098;52.400;16.880;2023-11-22T01:09:39;101644.39;;;1.39;85.52
24336;BME280;33098;52.400;16.880;2023-11-22T01:12:06;101649.38;;;1.34;85.35
24336;BME280;33098;52.400;16.880;2023-11-22T01:14:35;101652.48;;;1.36;85.59
24336;BME280;33098;52.400;16.880;2023-11-22T01:17:01;101651.75;;;1.38;85.59
24336;BME280;33098;52.400;16.880;2023-11-22T01:19:28;101651.94;;;1.37;85.52
24336;BME280;33098;52.400;16.880;2023-11-22T01:21:55;101652.30;;;1.37;85.38
24336;BME280;33098;52.400;16.880;2023-11-22T01:24:21;101658.32;;;1.33;85.28
24336;BME280;33098;52.400;16.880;2023-11-22T01:26:48;101667.89;;;1.27;85.16
24336;BME280;33098;52.400;16.880;2023-11-22T01:29:14;101677.89;;;1.26;85.04
24336;BME280;33098;52.400;16.880;2023-11-22T01:31:41;101681.25;;;1.24;85.02
24336;BME280;33098;52.400;16.880;2023-11-22T01:34:08;101686.02;;;1.21;84.87
24336;BME280;33098;52.400;16.880;2023-11-22T01:36:34;101689.08;;;1.17;84.86
24336;BME280;33098;52.400;16.880;2023-11-22T01:39:01;101688.59;;;1.15;84.69
24336;BME280;33098;52.400;16.880;2023-11-22T01:41:29;101692.29;;;1.13;84.70
24336;BME280;33098;52.400;16.880;2023-11-22T01:43:56;101693.77;;;1.10;84.74
24336;BME280;33098;52.400;16.880;2023-11-22T01:46:24;101697.34;;;1.05;84.66
24336;BME280;33098;52.400;16.880;2023-11-22T01:48:52;101697.26;;;1.01;84.45
24336;BME280;33098;52.400;16.880;2023-11-22T01:51:23;101698.00;;;0.98;84.59
24336;BME280;33098;52.400;16.880;2023-11-22T01:53:51;101704.85;;;0.96;84.29
24336;BME280;33098;52.400;16.880;2023-11-22T01:56:26;101711.55;;;0.93;84.42
24336;BME280;33098;52.400;16.880;2023-11-22T01:58:53;101716.64;;;0.92;84.55
24336;BME280;33098;52.400;16.880;2023-11-22T02:01:21;101719.27;;;0.91;84.39
24336;BME280;33098;52.400;16.880;2023-11-22T02:03:48;101716.88;;;0.88;84.26
24336;BME280;33098;52.400;16.880;2023-11-22T02:06:15;101715.85;;;0.87;84.39
24336;BME280;33098;52.400;16.880;2023-11-22T02:08:42;101719.73;;;0.86;84.22
24336;BME280;33098;52.400;16.880;2023-11-22T02:11:09;101731.95;;;0.86;84.18
24336;BME280;33098;52.400;16.880;2023-11-22T02:13:35;101734.60;;;0.85;84.06
24336;BME280;33098;52.400;16.880;2023-11-22T02:16:02;101737.77;;;0.83;84.31
24336;BME280;33098;52.400;16.880;2023-11-22T02:18:29;101737.99;;;0.80;84.16
24336;BME280;33098;52.400;16.880;2023-11-22T02:20:56;101742.55;;;0.79;84.22
24336;BME280;33098;52.400;16.880;2023-11-22T02:23:23;101743.31;;;0.76;83.92
24336;BME280;33098;52.400;16.880;2023-11-22T02:25:50;101744.71;;;0.75;84.03
24336;BME280;33098;52.400;16.880;2023-11-22T02:28:16;101745.06;;;0.75;83.89
24336;BME280;33098;52.400;16.880;2023-11-22T02:30:43;101739.39;;;0.71;83.88
24336;BME280;33098;52.400;16.880;2023-11-22T02:33:09;101743.27;;;0.68;83.88
24336;BME280;33098;52.400;16.880;2023-11-22T02:35:36;101748.14;;;0.69;84.09
24336;BME280;33098;52.400;16.880;2023-11-22T02:38:03;101752.02;;;0.67;83.94
24336;BME280;33098;52.400;16.880;2023-11-22T02:40:31;101752.46;;;0.61;84.00
24336;BME280;33098;52.400;16.880;2023-11-22T02:42:58;101750.40;;;0.59;84.09
24336;BME280;33098;52.400;16.880;2023-11-22T02:45:27;101757.23;;;0.58;83.95
24336;BME280;33098;52.400;16.880;2023-11-22T02:47:54;101762.88;;;0.54;84.09
24336;BME280;33098;52.400;16.880;2023-11-22T02:50:21;101770.45;;;0.50;83.95
24336;BME280;33098;52.400;16.880;2023-11-22T02:52:48;101773.12;;;0.47;84.11
24336;BME280;33098;52.400;16.880;2023-11-22T02:55:14;101778.14;;;0.50;84.32
24336;BME280;33098;52.400;16.880;2023-11-22T02:57:41;101787.36;;;0.52;84.18
24336;BME280;33098;52.400;16.880;2023-11-22T03:00:07;101796.29;;;0.51;84.24
24336;BME280;33098;52.400;16.880;2023-11-22T03:02:34;101802.07;;;0.49;84.36
24336;BME280;33098;52.400;16.880;2023-11-22T03:05:01;101798.85;;;0.43;83.96
24336;BME280;33098;52.400;16.880;2023-11-22T03:07:27;101797.50;;;0.40;84.03
24336;BME280;33098;52.400;16.880;2023-11-22T03:09:54;101790.70;;;0.38;84.25
24336;BME280;33098;52.400;16.880;2023-11-22T03:12:21;101795.05;;;0.40;84.44
24336;BME280;33098;52.400;16.880;2023-11-22T03:14:48;101789.81;;;0.40;84.25
24336;BME280;33098;52.400;16.880;2023-11-22T03:17:15;101783.28;;;0.33;84.19
24336;BME280;33098;52.400;16.880;2023-11-22T03:19:41;101786.63;;;0.30;84.40
24336;BME280;33098;52.400;16.880;2023-11-22T03:22:07;101785.03;;;0.33;84.48
24336;BME280;33098;52.400;16.880;2023-11-22T03:24:35;101793.41;;;0.34;84.66
24336;BME280;33098;52.400;16.880;2023-11-22T03:27:03;101791.80;;;0.36;84.71
24336;BME280;33098;52.400;16.880;2023-11-22T03:29:30;101791.47;;;0.35;84.66
24336;BME280;33098;52.400;16.880;2023-11-22T03:31:56;101792.05;;;0.30;84.54
24336;BME280;33098;52.400;16.880;2023-11-22T03:34:22;101789.66;;;0.27;84.31
24336;BME280;33098;52.400;16.880;2023-11-22T03:36:49;101791.77;;;0.26;84.60
24336;BME280;33098;52.400;16.880;2023-11-22T03:39:15;101793.61;;;0.31;84.82
24336;BME280;33098;52.400;16.880;2023-11-22T03:41:42;101790.38;;;0.37;85.03
24336;BME280;33098;52.400;16.880;2023-11-22T03:44:09;101787.36;;;0.41;85.06
24336;BME280;33098;52.400;16.880;2023-11-22T03:46:36;101784.79;;;0.38;84.77
24336;BME280;33098;52.400;16.880;2023-11-22T03:49:05;101782.63;;;0.29;84.63
24336;BME280;33098;52.400;16.880;2023-11-22T03:51:35;101788.28;;;0.26;84.47
24336;BME280;33098;52.400;16.880;2023-11-22T03:54:02;101791.60;;;0.26;84.61
24336;BME280;33098;52.400;16.880;2023-11-22T03:56:29;101792.45;;;0.27;84.58
24336;BME280;33098;52.400;16.880;2023-11-22T03:58:55;101798.92;;;0.27;84.66
24336;BME280;33098;52.400;16.880;2023-11-22T04:01:22;101807.67;;;0.25;84.51
24336;BME280;33098;52.400;16.880;2023-11-22T04:03:49;101820.65;;;0.21;84.38
24336;BME280;33098;52.400;16.880;2023-11-22T04:06:16;101828.25;;;0.13;84.29
24336;BME280;33098;52.400;16.880;2023-11-22T04:08:43;101837.09;;;0.05;84.28
24336;BME280;33098;52.400;16.880;2023-11-22T04:11:13;101845.12;;;0.05;84.54
24336;BME280;33098;52.400;16.880;2023-11-22T04:13:39;101847.01;;;0.07;84.66
24336;BME280;33098;52.400;16.880;2023-11-22T04:16:06;101847.68;;;0.09;84.81
24336;BME280;33098;52.400;16.880;2023-11-22T04:18:35;101847.54;;;0.07;84.55
24336;BME280;33098;52.400;16.880;2023-11-22T04:21:04;101844.77;;;0.04;84.51
24336;BME280;33098;52.400;16.880;2023-11-22T04:23:31;101843.21;;;0.04;84.62
24336;BME280;33098;52.400;16.880;2023-11-22T04:25:58;101846.55;;;0.02;84.63
24336;BME280;33098;52.400;16.880;2023-11-22T04:28:25;101860.86;;;0.02;84.72
24336;BME280;33098;52.400;16.880;2023-11-22T04:30:52;101873.19;;;0.08;85.04
24336;BME280;33098;52.400;16.880;2023-11-22T04:33:19;101879.66;;;0.07;84.78
24336;BME280;33098;52.400;16.880;2023-11-22T04:35:47;101879.50;;;0.05;84.67
24336;BME280;33098;52.400;16.880;2023-11-22T04:38:14;101875.17;;;0.03;84.71
24336;BME280;33098;52.400;16.880;2023-11-22T04:40:40;101882.00;;;0.02;84.54
24336;BME280;33098;52.400;16.880;2023-11-22T04:43:08;101886.75;;;-0.04;84.49
24336;BME280;33098;52.400;16.880;2023-11-22T04:45:35;101898.15;;;-0.08;84.58
24336;BME280;33098;52.400;16.880;2023-11-22T04:48:01;101901.09;;;-0.06;84.69
24336;BME280;33098;52.400;16.880;2023-11-22T04:50:28;101902.09;;;-0.01;84.83
24336;BME280;33098;52.400;16.880;2023-11-22T04:52:54;101913.93;;;0.02;84.79
24336;BME280;33098;52.400;16.880;2023-11-22T04:55:21;101925.27;;;0.02;84.73
24336;BME280;33098;52.400;16.880;2023-11-22T04:57:49;101936.96;;;0.01;84.75
24336;BME280;33098;52.400;16.880;2023-11-22T05:00:16;101940.13;;;-0.00;84.81
24336;BME280;33098;52.400;16.880;2023-11-22T05:02:43;101938.80;;;-0.06;84.35
24336;BME280;33098;52.400;16.880;2023-11-22T05:05:10;101936.91;;;-0.10;84.34
24336;BME280;33098;52.400;16.880;2023-11-22T05:07:37;101938.51;;;-0.12;84.41
24336;BME280;33098;52.400;16.880;2023-11-22T05:10:04;101937.08;;;-0.08;84.69
24336;BME280;33098;52.400;16.880;2023-11-22T05:12:30;101938.49;;;-0.10;84.48
24336;BME280;33098;52.400;16.880;2023-11-22T05:14:57;101947.80;;;-0.16;84.53
24336;BME280;33098;52.400;16.880;2023-11-22T05:17:23;101948.21;;;-0.23;84.40
24336;BME280;33098;52.400;16.880;2023-11-22T05:19:50;101953.69;;;-0.29;84.53
24336;BME280;33098;52.400;16.880;2023-11-22T05:22:16;101951.61;;;-0.31;84.63
24336;BME280;33098;52.400;16.880;2023-11-22T05:24:43;101954.03;;;-0.30;84.78
24336;BME280;33098;52.400;16.880;2023-11-22T05:27:10;101955.61;;;-0.31;84.91
24336;BME280;33098;52.400;16.880;2023-11-22T05:29:36;101966.64;;;-0.34;84.92
24336;BME280;33098;52.400;16.880;2023-11-22T05:32:03;101963.52;;;-0.37;85.05
24336;BME280;33098;52.400;16.880;2023-11-22T05:34:30;101956.70;;;-0.37;85.02
24336;BME280;33098;52.400;16.880;2023-11-22T05:36:56;101962.65;;;-0.37;85.03
24336;BME280;33098;52.400;16.880;2023-11-22T05:39:22;101957.55;;;-0.35;85.10
24336;BME280;33098;52.400;16.880;2023-11-22T05:41:50;101954.44;;;-0.35;85.27
24336;BME280;33098;52.400;16.880;2023-11-22T05:44:17;101959.45;;;-0.30;85.45
24336;BME280;33098;52.400;16.880;2023-11-22T05:46:43;101956.30;;;-0.29;85.28
24336;BME280;33098;52.400;16.880;2023-11-22T05:49:10;101969.87;;;-0.26;85.49
24336;BME280;33098;52.400;16.880;2023-11-22T05:51:39;101981.52;;;-0.20;85.70
24336;BME280;33098;52.400;16.880;2023-11-22T05:54:06;101974.00;;;-0.18;85.54
24336;BME280;33098;52.400;16.880;2023-11-22T05:56:33;101978.55;;;-0.22;85.33
24336;BME280;33098;52.400;16.880;2023-11-22T05:58:59;101979.13;;;-0.26;85.24
24336;BME280;33098;52.400;16.880;2023-11-22T06:01:26;101985.44;;;-0.30;84.96
24336;BME280;33098;52.400;16.880;2023-11-22T06:03:53;101992.96;;;-0.33;84.86
24336;BME280;33098;52.400;16.880;2023-11-22T06:06:19;101988.78;;;-0.34;85.04
24336;BME280;33098;52.400;16.880;2023-11-22T06:08:48;101979.90;;;-0.35;84.99
24336;BME280;33098;52.400;16.880;2023-11-22T06:11:14;101984.66;;;-0.40;84.91
24336;BME280;33098;52.400;16.880;2023-11-22T06:13:41;102005.39;;;-0.37;85.14
24336;BME280;33098;52.400;16.880;2023-11-22T06:16:13;102016.02;;;-0.37;85.24
24336;BME280;33098;52.400;16.880;2023-11-22T06:18:39;102016.34;;;-0.33;85.46
24336;BME280;33098;52.400;16.880;2023-11-22T06:21:10;102012.34;;;-0.34;85.05
24336;BME280;33098;52.400;16.880;2023-11-22T06:23:37;102008.04;;;-0.43;84.94
24336;BME280;33098;52.400;16.880;2023-11-22T06:26:03;102005.15;;;-0.51;84.73
24336;BME280;33098;52.400;16.880;2023-11-22T06:28:29;102005.03;;;-0.60;84.54
24336;BME280;33098;52.400;16.880;2023-11-22T06:30:56;102000.52;;;-0.64;84.74
24336;BME280;33098;52.400;16.880;2023-11-22T06:33:23;102001.17;;;-0.57;84.93
24336;BME280;33098;52.400;16.880;2023-11-22T06:35:50;102006.20;;;-0.51;85.22
24336;BME280;33098;52.400;16.880;2023-11-22T06:38:17;102005.83;;;-0.49;85.14
24336;BME280;33098;52.400;16.880;2023-11-22T06:40:43;102018.35;;;-0.44;85.25
24336;BME280;33098;52.400;16.880;2023-11-22T06:43:10;102027.02;;;-0.37;85.44
24336;BME280;33098;52.400;16.880;2023-11-22T06:45:37;102026.33;;;-0.38;85.20
24336;BME280;33098;52.400;16.880;2023-11-22T06:48:03;102025.55;;;-0.51;84.74
24336;BME280;33098;52.400;16.880;2023-11-22T06:50:30;102032.05;;;-0.60;84.85
24336;BME280;33098;52.400;16.880;2023-11-22T06:52:56;102043.39;;;-0.59;85.06
24336;BME280;33098;52.400;16.880;2023-11-22T06:55:23;102047.39;;;-0.55;85.33
24336;BME280;33098;52.400;16.880;2023-11-22T06:57:49;102047.90;;;-0.54;85.41
24336;BME280;33098;52.400;16.880;2023-11-22T07:00:16;102059.94;;;-0.55;85.47
24336;BME280;33098;52.400;16.880;2023-11-22T07:02:43;102070.04;;;-0.55;85.52
24336;BME280;33098;52.400;16.880;2023-11-22T07:05:09;102072.46;;;-0.51;85.70
24336;BME280;33098;52.400;16.880;2023-11-22T07:07:36;102074.89;;;-0.48;85.70
24336;BME280;33098;52.400;16.880;2023-11-22T07:10:02;102080.65;;;-0.48;85.73
24336;BME280;33098;52.400;16.880;2023-11-22T07:12:34;102093.54;;;-0.46;85.78
24336;BME280;33098;52.400;16.880;2023-11-22T07:15:01;102103.13;;;-0.44;85.80
24336;BME280;33098;52.400;16.880;2023-11-22T07:17:29;102109.85;;;-0.33;86.24
24336;BME280;33098;52.400;16.880;2023-11-22T07:19:55;102118.88;;;-0.25;86.19
24336;BME280;33098;52.400;16.880;2023-11-22T07:22:22;102129.66;;;-0.19;86.22
24336;BME280;33098;52.400;16.880;2023-11-22T07:24:50;102140.83;;;-0.22;86.05
24336;BME280;33098;52.400;16.880;2023-11-22T07:27:21;102152.17;;;-0.23;85.84
24336;BME280;33098;52.400;16.880;2023-11-22T07:29:48;102155.85;;;-0.23;85.87
24336;BME280;33098;52.400;16.880;2023-11-22T07:32:16;102155.14;;;-0.20;85.97
24336;BME280;33098;52.400;16.880;2023-11-22T07:34:43;102146.95;;;-0.22;85.96
24336;BME280;33098;52.400;16.880;2023-11-22T07:37:09;102148.88;;;-0.24;85.85
24336;BME280;33098;52.400;16.880;2023-11-22T07:39:36;102136.65;;;-0.23;85.98
24336;BME280;33098;52.400;16.880;2023-11-22T07:42:04;102124.73;;;-0.15;86.13
24336;BME280;33098;52.400;16.880;2023-11-22T07:44:37;102107.11;;;-0.14;86.01
24336;BME280;33098;52.400;16.880;2023-11-22T07:47:04;102099.92;;;-0.11;86.15
24336;BME280;33098;52.400;16.880;2023-11-22T07:49:39;102092.73;;;-0.06;86.15
24336;BME280;33098;52.400;16.880;2023-11-22T07:52:06;102092.39;;;-0.07;85.96
24336;BME280;33098;52.400;16.880;2023-11-22T07:54:33;102091.86;;;-0.07;86.03
24336;BME280;33098;52.400;16.880;2023-11-22T07:57:01;102097.68;;;-0.14;85.68
24336;BME280;33098;52.400;16.880;2023-11-22T07:59:28;102100.33;;;-0.18;85.70
24336;BME280;33098;52.400;16.880;2023-11-22T08:01:54;102107.43;;;-0.10;86.12
24336;BME280;33098;52.400;16.880;2023-11-22T08:04:21;102108.30;;;-0.10;85.80
24336;BME280;33098;52.400;16.880;2023-11-22T08:06:49;102112.98;;;-0.07;85.81
24336;BME280;33098;52.400;16.880;2023-11-22T08:09:15;102113.31;;;-0.04;85.96
24336;BME280;33098;52.400;16.880;2023-11-22T08:11:42;102108.09;;;-0.05;86.03
24336;BME280;33098;52.400;16.880;2023-11-22T08:14:09;102104.05;;;-0.03;86.04
24336;BME280;33098;52.400;16.880;2023-11-22T08:16:35;102096.86;;;0.01;86.09
24336;BME280;33098;52.400;16.880;2023-11-22T08:19:04;102084.49;;;-0.01;85.64
24336;BME280;33098;52.400;16.880;2023-11-22T08:21:31;102080.96;;;0.05;85.97
24336;BME280;33098;52.400;16.880;2023-11-22T08:23:58;102079.32;;;0.11;86.02
24336;BME280;33098;52.400;16.880;2023-11-22T08:26:26;102079.27;;;0.18;86.08
24336;BME280;33098;52.400;16.880;2023-11-22T08:28:53;102081.84;;;0.23;86.03
24336;BME280;33098;52.400;16.880;2023-11-22T08:31:19;102076.25;;;0.22;85.66
24336;BME280;33098;52.400;16.880;2023-11-22T08:33:46;102075.02;;;0.24;85.59
24336;BME280;33098;52.400;16.880;2023-11-22T08:36:13;102074.99;;;0.27;85.71
24336;BME280;33098;52.400;16.880;2023-11-22T08:38:39;102077.07;;;0.29;85.68
24336;BME280;33098;52.400;16.880;2023-11-22T08:41:07;102070.25;;;0.29;85.66
24336;BME280;33098;52.400;16.880;2023-11-22T08:43:34;102069.55;;;0.31;85.68
24336;BME280;33098;52.400;16.880;2023-11-22T08:46:01;102066.73;;;0.33;85.80
24336;BME280;33098;52.400;16.880;2023-11-22T08:48:30;102074.60;;;0.49;85.93
24336;BME280;33098;52.400;16.880;2023-11-22T08:50:57;102087.28;;;0.55;85.26
24336;BME280;33098;52.400;16.880;2023-11-22T08:53:24;102088.90;;;0.52;85.04
24336;BME280;33098;52.400;16.880;2023-11-22T08:55:51;102090.81;;;0.51;84.86
24336;BME280;33098;52.400;16.880;2023-11-22T08:58:19;102094.24;;;0.58;85.06
24336;BME280;33098;52.400;16.880;2023-11-22T09:00:46;102099.59;;;0.65;85.25
24336;BME280;33098;52.400;16.880;2023-11-22T09:03:12;102106.71;;;0.69;84.50
24336;BME280;33098;52.400;16.880;2023-11-22T09:05:39;102107.38;;;0.72;84.94
24336;BME280;33098;52.400;16.880;2023-11-22T09:08:06;102105.09;;;0.74;84.34
24336;BME280;33098;52.400;16.880;2023-11-22T09:10:32;102111.34;;;0.61;83.64
24336;BME280;33098;52.400;16.880;2023-11-22T09:12:59;102113.41;;;0.63;83.84
24336;BME280;33098;52.400;16.880;2023-11-22T09:15:26;102107.03;;;0.72;84.09
24336;BME280;33098;52.400;16.880;2023-11-22T09:17:53;102103.80;;;0.80;84.32
24336;BME280;33098;52.400;16.880;2023-11-22T09:20:20;102104.25;;;0.86;84.17
24336;BME280;33098;52.400;16.880;2023-11-22T09:22:50;102107.11;;;0.96;84.41
24336;BME280;33098;52.400;16.880;2023-11-22T09:25:17;102106.06;;;0.81;82.83
24336;BME280;33098;52.400;16.880;2023-11-22T09:27:45;102104.93;;;0.56;82.17
24336;BME280;33098;52.400;16.880;2023-11-22T09:30:16;102102.60;;;0.44;81.80
24336;BME280;33098;52.400;16.880;2023-11-22T09:32:59;102101.29;;;0.53;82.78
24336;BME280;33098;52.400;16.880;2023-11-22T09:35:26;102104.24;;;0.70;83.41
24336;BME280;33098;52.400;16.880;2023-11-22T09:37:54;102107.55;;;0.88;83.55
24336;BME280;33098;52.400;16.880;2023-11-22T09:40:21;102114.27;;;0.98;83.31
24336;BME280;33098;52.400;16.880;2023-11-22T09:42:48;102113.42;;;0.93;82.61
24336;BME280;33098;52.400;16.880;2023-11-22T09:45:17;102116.91;;;0.96;83.05
24336;BME280;33098;52.400;16.880;2023-11-22T09:47:47;102112.33;;;1.13;83.75
24336;BME280;33098;52.400;16.880;2023-11-22T09:50:15;102113.40;;;1.26;83.69
24336;BME280;33098;52.400;16.880;2023-11-22T09:52:44;102124.73;;;1.27;83.34
24336;BME280;33098;52.400;16.880;2023-11-22T09:55:12;102118.02;;;1.18;82.85
24336;BME280;33098;52.400;16.880;2023-11-22T09:57:39;102125.49;;;1.08;82.05
24336;BME280;33098;52.400;16.880;2023-11-22T10:00:06;102134.55;;;1.11;82.65
24336;BME280;33098;52.400;16.880;2023-11-22T10:02:35;102128.75;;;1.27;83.07
24336;BME280;33098;52.400;16.880;2023-11-22T10:05:02;102133.45;;;1.43;83.05
24336;BME280;33098;52.400;16.880;2023-11-22T10:07:29;102138.84;;;1.58;83.18
24336;BME280;33098;52.400;16.880;2023-11-22T10:09:55;102140.95;;;1.70;83.20
24336;BME280;33098;52.400;16.880;2023-11-22T10:12:23;102143.38;;;1.72;82.53
24336;BME280;33098;52.400;16.880;2023-11-22T10:14:50;102139.21;;;1.70;82.18
24336;BME280;33098;52.400;16.880;2023-11-22T10:17:16;102120.59;;;1.75;82.23
24336;BME280;33098;52.400;16.880;2023-11-22T10:19:43;102090.89;;;1.82;82.33
24336;BME280;33098;52.400;16.880;2023-11-22T10:22:10;102090.85;;;1.96;82.68
24336;BME280;33098;52.400;16.880;2023-11-22T10:24:36;102096.33;;;2.14;83.11
24336;BME280;33098;52.400;16.880;2023-11-22T10:27:03;102104.20;;;2.25;82.63
24336;BME280;33098;52.400;16.880;2023-11-22T10:29:29;102100.90;;;2.24;81.94
24336;BME280;33098;52.400;16.880;2023-11-22T10:31:56;102088.54;;;2.29;81.95
24336;BME280;33098;52.400;16.880;2023-11-22T10:34:23;102089.38;;;2.31;81.54
24336;BME280;33098;52.400;16.880;2023-11-22T10:36:50;102092.00;;;2.21;80.27
24336;BME280;33098;52.400;16.880;2023-11-22T10:39:20;102090.61;;;2.00;79.02
24336;BME280;33098;52.400;16.880;2023-11-22T10:41:46;102094.75;;;1.82;78.69
24336;BME280;33098;52.400;16.880;2023-11-22T10:44:13;102104.26;;;1.78;79.14
24336;BME280;33098;52.400;16.880;2023-11-22T10:46:42;102106.80;;;1.95;80.20
24336;BME280;33098;52.400;16.880;2023-11-22T10:49:09;102112.34;;;2.09;80.12
24336;BME280;33098;52.400;16.880;2023-11-22T10:51:35;102114.05;;;2.22;80.19
24336;BME280;33098;52.400;16.880;2023-11-22T10:54:06;102106.02;;;2.31;80.13
24336;BME280;33098;52.400;16.880;2023-11-22T10:56:38;102104.08;;;2.42;80.10
24336;BME280;33098;52.400;16.880;2023-11-22T10:59:06;102101.48;;;2.59;80.55
24336;BME280;33098;52.400;16.880;2023-11-22T11:01:35;102101.43;;;2.71;80.34
24336;BME280;33098;52.400;16.880;2023-11-22T11:04:09;102098.34;;;2.77;79.97
24336;BME280;33098;52.400;16.880;2023-11-22T11:06:37;102096.25;;;2.86;79.92
24336;BME280;33098;52.400;16.880;2023-11-22T11:09:05;102100.08;;;2.87;78.97
24336;BME280;33098;52.400;16.880;2023-11-22T11:11:32;102089.48;;;2.72;77.92
24336;BME280;33098;52.400;16.880;2023-11-22T11:14:00;102092.95;;;2.66;77.76
24336;BME280;33098;52.400;16.880;2023-11-22T11:16:27;102102.00;;;2.78;78.67
24336;BME280;33098;52.400;16.880;2023-11-22T11:18:57;102105.16;;;2.87;78.02
24336;BME280;33098;52.400;16.880;2023-11-22T11:21:24;102108.58;;;2.92;78.29
24336;BME280;33098;52.400;16.880;2023-11-22T11:23:54;102108.66;;;3.05;78.48
24336;BME280;33098;52.400;16.880;2023-11-22T11:26:24;102101.13;;;3.14;78.05
24336;BME280;33098;52.400;16.880;2023-11-22T11:28:52;102112.48;;;3.16;77.95
24336;BME280;33098;52.400;16.880;2023-11-22T11:31:21;102120.14;;;3.27;77.84
24336;BME280;33098;52.400;16.880;2023-11-22T11:36:22;102114.16;;;3.20;77.00
24336;BME280;33098;52.400;16.880;2023-11-22T11:38:51;102096.36;;;3.31;77.70
24336;BME280;33098;52.400;16.880;2023-11-22T11:41:17;102086.97;;;3.43;77.74
24336;BME280;33098;52.400;16.880;2023-11-22T11:43:44;102085.67;;;3.46;77.42
24336;BME280;33098;52.400;16.880;2023-11-22T11:46:15;102080.35;;;3.56;77.37
24336;BME280;33098;52.400;16.880;2023-11-22T11:48:42;102075.99;;;3.62;76.90
24336;BME280;33098;52.400;16.880;2023-11-22T11:51:09;102080.46;;;3.60;76.54
24336;BME280;33098;52.400;16.880;2023-11-22T11:53:35;102086.80;;;3.66;76.72
24336;BME280;33098;52.400;16.880;2023-11-22T11:56:02;102089.20;;;3.61;75.68
24336;BME280;33098;52.400;16.880;2023-11-22T11:58:28;102088.75;;;3.57;75.68
24336;BME280;33098;52.400;16.880;2023-11-22T12:00:55;102082.60;;;3.58;75.10
24336;BME280;33098;52.400;16.880;2023-11-22T12:03:22;102079.50;;;3.55;75.13
24336;BME280;33098;52.400;16.880;2023-11-22T12:05:49;102077.79;;;3.68;75.68
24336;BME280;33098;52.400;16.880;2023-11-22T12:08:15;102078.52;;;3.74;75.32
24336;BME280;33098;52.400;16.880;2023-11-22T12:10:43;102082.34;;;3.77;75.22
24336;BME280;33098;52.400;16.880;2023-11-22T12:13:10;102082.16;;;3.84;75.33
24336;BME280;33098;52.400;16.880;2023-11-22T12:15:36;102079.00;;;3.91;75.13
24336;BME280;33098;52.400;16.880;2023-11-22T12:18:03;102074.06;;;3.92;74.72
24336;BME280;33098;52.400;16.880;2023-11-22T12:20:30;102075.09;;;3.86;74.28
24336;BME280;33098;52.400;16.880;2023-11-22T12:22:58;102070.86;;;3.87;74.30
24336;BME280;33098;52.400;16.880;2023-11-22T12:25:27;102062.63;;;3.86;74.35
24336;BME280;33098;52.400;16.880;2023-11-22T12:27:53;102065.45;;;3.77;73.67
24336;BME280;33098;52.400;16.880;2023-11-22T12:30:33;102057.95;;;3.76;73.67
24336;BME280;33098;52.400;16.880;2023-11-22T12:33:06;102059.94;;;3.65;72.11
24336;BME280;33098;52.400;16.880;2023-11-22T12:35:33;102051.77;;;3.55;72.23
24336;BME280;33098;52.400;16.880;2023-11-22T12:38:01;102041.13;;;3.59;72.54
24336;BME280;33098;52.400;16.880;2023-11-22T12:40:28;102037.50;;;3.50;72.54
24336;BME280;33098;52.400;16.880;2023-11-22T12:42:57;102029.25;;;3.49;73.05
24336;BME280;33098;52.400;16.880;2023-11-22T12:45:24;102026.88;;;3.46;71.44
24336;BME280;33098;52.400;16.880;2023-11-22T12:47:51;102022.42;;;3.26;69.88
24336;BME280;33098;52.400;16.880;2023-11-22T12:50:37;102025.64;;;3.08;69.19